Main page
METAR-TAF:

METAR-TAF

Airports :

Durham, England

Durham Tees Valley Airport

latitude: 54-31N, longitude: 001-25W, elevation: 37 m

Current weather observation

The report was made 40 minutes ago, at 06:50 UTC
Wind 11 kt from the South
Temperature 12°C
Humidity 94%
Pressure 1010 hPa
Visibility: 7000 m
Scattered clouds at a height of 2700 ft
Broken clouds at a height of 4000 ft
light rain

METAR: EGNV 240650Z 17011KT 7000 -RA SCT027 BKN040 12/11 Q1010

Time: 08:30 (07:30 UTC)

Forecast

The report was made 1 hour and 59 minutes ago, at 05:31 UTC
Forecast valid from 24 at 06 UTC to 24 at 15 UTC
Wind 9 kt from the South
Visibility 10 km or more
Scattered clouds at a height of 1900 ft
light rain
Temporary
from 24 at 06 UTC to 24 at 13 UTC
Visibility: 6000 m
Broken clouds at a height of 1200 ft
rain, light rain, drizzle
Becoming
from 24 at 13 UTC to 24 at 15 UTC
Wind 12 kt from the West/Southwest

TAF: EGNV 240531Z 2406/2415 19009KT 9999 -RA SCT019 TEMPO 2406/2413 6000 RA -RADZ BKN012 BECMG 2413/2415 25012KT

Weather observations and forecasts of more than 4000 airports (METAR and TAF reports).

The available stations are represented by yellow and red dots on the map.

Hover mouse over dot to see the name of the station.

Then click to see weather observations and forecasts.

To change the map : click on the green buttons with a black cross to zoom in, on the green button with a dash to zoom out, or on the green arrows for adjacent maps.


METAR-TAF: